Date,TemperatureHighF,TemperatureAvgF,TemperatureLowF,DewpointHighF,DewpointAvgF,DewpointLowF,HumidityHigh,HumidityAvg,HumidityLow,PressureMaxIn,PressureMinIn,WindSpeedMaxMPH,WindSpeedAvgMPH,GustSpeedMaxMPH,PrecipitationSumIn
2014-1-1,37,19,9,27,14,4,88,83,68,30.43,30.02,9,3,20,0.00
2014-1-2,27,15,6,16,9,2,87,77,64,30.48,30.41,5,2,10,0.00
2014-1-3,44,30,12,30,21,8,85,70,57,30.41,29.69,13,6,24,0.00
2014-1-4,39,28,19,30,21,-100,91,77,60,30.16,29.69,13,3,20,0.00
2014-1-5,19,12,4,16,2,-8,89,62,51,30.62,30.14,9,4,19,0.00
2014-1-6,17,6,-3,1,-8,-16,70,52,37,30.64,30.37,8,2,15,0.00
2014-1-7,42,25,9,27,16,1,82,68,52,30.37,30.12,9,2,13,0.00
2014-1-8,30,27,19,25,20,14,84,75,65,30.35,30.17,10,4,16,0.00
2014-1-9,35,24,16,32,21,13,92,88,80,30.34,29.99,4,1,9,0.00
2014-1-10,40,36,35,37,34,33,97,92,84,29.97,29.60,4,1,11,0.10
2014-1-11,53,41,32,35,30,-100,94,70,45,29.99,29.75,13,2,14,0.02
2014-1-12,53,46,39,37,32,28,78,59,48,29.83,29.52,11,3,14,0.00
2014-1-13,54,42,34,37,30,26,86,65,37,30.01,29.77,8,2,11,0.00
2014-1-14,45,40,31,30,23,15,65,52,31,30.35,29.85,13,5,24,0.00
2014-1-15,52,37,25,31,26,19,86,65,40,30.35,29.86,8,1,13,0.00
2014-1-16,45,42,38,31,28,24,69,60,44,30.07,29.89,16,4,32,0.00
2014-1-21,32,28,22,13,5,-4,57,39,27,30.29,30.09,9,3,14,0.00
2014-1-22,42,29,12,24,15,-5,78,57,37,30.58,30.15,15,4,22,0.00
2014-1-23,21,11,5,-3,-6,-9,56,45,31,30.86,30.58,9,3,17,0.00
2014-1-24,55,32,12,28,11,-4,63,44,26,30.68,29.93,17,4,19,0.00
2014-1-25,56,48,42,35,29,-100,65,50,39,30.14,29.83,12,4,24,0.00
2014-1-26,62,46,23,34,26,-1,76,47,28,30.29,29.74,14,6,32,0.00
2014-1-27,21,15,11,-4,-7,-9,43,36,30,30.51,30.32,14,3,29,0.00
2014-1-28,28,19,11,11,2,-5,66,48,32,30.51,30.33,9,2,15,0.00
2014-1-29,49,30,14,18,11,2,77,50,24,30.31,29.78,13,4,22,0.00
2014-1-30,48,38,30,27,17,11,56,44,32,30.02,29.59,12,6,23,0.00
2014-1-31,30,25,21,20,16,13,91,71,56,30.07,29.93,10,5,17,0.00
2014-2-1,31,24,20,23,18,-100,91,80,73,30.32,29.90,6,2,14,0.00
2014-2-2,25,16,7,13,8,3,83,73,52,30.43,30.31,2,0,5,0.00
2014-2-3,36,24,11,23,13,7,85,67,39,30.32,30.14,7,1,10,0.00
2014-2-4,31,23,10,26,20,7,94,90,72,30.35,30.03,15,6,19,0.00
2014-2-5,11,7,4,7,1,-3,89,75,60,30.71,30.36,13,5,20,0.00
2014-2-6,11,7,-1,-1,-3,-7,74,64,54,30.71,30.47,4,0,8,0.00
2014-2-7,17,13,8,14,5,-2,86,70,61,30.46,30.20,5,2,11,0.00
2014-2-8,29,24,17,25,20,14,92,86,79,30.20,30.07,5,0,11,0.00
2014-2-9,26,20,13,24,14,8,91,78,70,30.45,30.24,11,3,18,0.00
2014-2-10,18,13,10,9,7,5,87,75,66,30.51,30.43,6,2,11,0.00
2014-2-11,25,17,12,12,8,5,77,67,51,30.50,30.22,7,2,14,0.00
2014-2-12,38,28,18,29,22,10,84,78,70,30.20,30.01,8,2,14,0.06
2014-2-19,58,53,47,36,31,23,62,43,28,29.95,29.55,8,3,14,0.00
2014-2-20,50,43,34,40,31,21,97,66,31,29.95,29.40,20,6,43,0.13
2014-2-21,59,43,29,26,23,21,74,49,24,29.98,29.88,13,3,17,0.02
2014-2-22,56,40,29,32,26,-100,82,61,33,30.12,29.91,10,3,15,0.00
2014-2-23,34,30,25,25,19,13,78,65,47,30.38,30.13,12,5,15,0.00
2014-2-24,46,32,23,24,18,15,75,60,38,30.38,30.11,6,2,14,0.00
2014-2-25,29,21,17,20,14,6,88,73,52,30.55,30.32,12,4,16,0.00
2014-2-26,39,21,5,23,12,1,88,69,50,30.55,30.05,8,1,14,0.00
2014-2-27,44,30,19,20,16,13,81,60,34,30.15,29.82,9,3,14,0.00
2014-2-28,53,38,28,36,23,14,77,55,47,30.11,29.71,12,3,14,0.00
2014-3-1,28,17,5,22,11,-100,88,80,74,30.46,30.10,18,5,19,0.00
2014-3-2,9,6,3,1,-3,-7,80,65,53,30.59,30.41,13,5,20,0.00
2014-3-3,19,10,0,2,-4,-8,67,54,41,30.60,30.26,11,2,13,0.00
2014-3-4,38,27,14,26,15,0,74,61,52,30.23,29.98,9,1,14,0.01
2014-3-5,33,31,28,28,25,23,89,80,65,30.33,30.05,8,2,11,0.01
2014-3-6,44,35,27,37,31,26,95,86,70,30.32,29.91,9,2,14,0.00
2014-3-7,57,43,33,40,35,24,87,74,50,30.17,29.82,11,4,17,0.00
2014-3-8,45,34,28,24,19,-100,79,59,34,30.37,30.17,11,4,13,0.00
2014-3-9,69,48,26,36,27,18,73,49,25,30.36,29.99,12,4,22,0.00
2014-3-10,83,61,45,36,32,27,54,35,16,30.01,29.68,7,2,14,0.00
2014-3-11,64,51,34,47,36,30,93,57,34,30.17,29.46,21,5,27,0.03
2014-3-12,58,44,33,35,30,26,91,64,30,30.30,30.17,12,4,24,0.01
2014-3-13,73,52,33,31,24,17,68,40,12,30.18,29.78,13,3,20,0.00
2014-3-14,66,57,47,31,23,17,47,28,15,30.05,29.78,13,3,17,0.00
2014-3-15,76,56,41,34,26,-100,59,35,17,30.09,29.77,17,4,26,0.00
2014-3-16,46,38,30,29,21,16,78,52,31,30.33,30.09,13,5,21,0.00
2014-3-17,63,44,28,32,22,-100,64,45,28,30.12,29.51,10,5,23,0.00
2014-3-18,60,48,35,35,32,28,89,54,37,29.86,29.36,17,7,26,0.00
2014-3-19,59,43,32,32,29,27,85,62,31,30.24,29.91,13,6,25,0.00
2014-3-20,74,54,33,29,22,13,67,36,10,30.13,29.86,11,2,16,0.00
2014-3-21,64,55,45,33,27,-100,58,37,23,30.22,29.77,8,4,16,0.00
2014-3-22,45,36,28,32,18,-100,71,54,25,30.55,30.24,13,5,16,0.00
2014-3-23,47,33,19,22,17,11,86,56,30,30.58,30.27,7,2,13,0.00
2014-3-24,49,39,31,35,23,18,92,56,35,30.31,30.24,10,2,15,0.04
2014-3-25,48,37,28,27,18,11,85,49,28,30.50,30.20,9,2,13,0.01
2014-3-26,57,43,33,44,33,17,97,69,39,30.16,29.66,14,8,34,0.00
2014-3-27,64,53,40,54,44,32,97,74,54,29.94,29.37,14,7,26,0.00
2014-3-28,56,40,29,37,31,25,85,72,47,30.19,29.94,8,1,11,0.01
2014-3-29,66,46,27,36,30,-100,92,60,30,30.37,30.14,6,2,12,0.01
2014-3-30,76,64,50,41,36,32,53,38,26,30.14,29.70,14,8,28,0.00
2014-3-31,71,62,38,46,34,23,55,37,18,30.08,29.55,18,10,30,0.00
2014-4-1,57,42,31,30,24,-100,73,53,35,30.14,29.96,9,2,13,0.00
2014-4-2,47,44,42,46,40,28,98,85,54,30.00,29.74,8,4,14,0.01
2014-4-3,45,43,37,44,42,34,98,96,92,30.00,29.68,13,5,20,0.03
2014-4-4,53,41,35,34,31,28,91,67,39,30.23,30.00,13,5,22,0.01
2014-4-5,68,52,35,33,29,-100,76,48,23,30.18,29.99,10,4,17,0.00
2014-4-6,61,55,50,47,41,32,81,60,40,30.07,29.86,6,2,11,0.00
2014-4-7,61,51,46,47,43,39,91,76,47,30.02,29.83,11,4,17,0.08
2014-4-8,64,53,39,39,29,16,81,47,16,30.17,30.05,11,4,23,0.01
2014-4-9,90,64,41,41,31,20,49,32,13,30.16,29.75,11,5,25,0.00
2014-4-10,71,64,57,44,37,30,56,37,24,30.03,29.72,13,6,21,0.00
2014-4-11,82,66,50,51,36,29,55,34,21,30.10,29.87,10,2,14,0.00
2014-4-12,92,73,62,63,57,-100,89,62,30,29.88,29.51,11,6,20,0.00
2014-4-13,74,55,35,61,49,31,90,79,63,30.00,29.49,14,5,29,0.00
2014-4-14,50,40,32,30,21,14,86,51,24,30.29,29.97,13,6,23,0.00
2014-4-15,65,48,27,28,23,20,79,44,19,30.25,29.92,11,3,19,0.00
2014-4-16,72,59,45,41,30,20,62,34,23,30.14,29.78,14,8,27,0.00
2014-4-17,45,39,36,33,29,27,72,68,61,30.35,30.14,7,3,13,0.00